createdAt,value
2023-04-15T00:01:02.888Z,11.45
2023-04-15T00:03:32.072Z,11.46
2023-04-15T00:06:01.936Z,11.47
2023-04-15T00:08:31.201Z,11.47
2023-04-15T00:11:03.322Z,11.47
2023-04-15T00:13:35.008Z,11.44
2023-04-15T00:16:03.648Z,11.45
2023-04-15T00:18:33.023Z,11.47
2023-04-15T00:21:01.962Z,11.46
2023-04-15T00:23:31.028Z,11.44
2023-04-15T00:25:59.646Z,11.38
2023-04-15T00:28:28.528Z,11.41
2023-04-15T00:30:57.971Z,11.37
2023-04-15T00:33:26.826Z,11.35
2023-04-15T00:35:55.508Z,11.33
2023-04-15T00:38:24.495Z,11.31
2023-04-15T00:40:53.670Z,11.30
2023-04-15T00:43:22.491Z,11.29
2023-04-15T00:45:53.888Z,11.29
2023-04-15T00:48:22.728Z,11.26
2023-04-15T00:50:51.359Z,11.23
2023-04-15T00:53:19.892Z,11.20
2023-04-15T00:55:48.643Z,11.19
2023-04-15T00:58:18.190Z,11.20
2023-04-15T01:00:47.275Z,11.20
2023-04-15T01:03:16.302Z,11.19
2023-04-15T01:05:45.163Z,11.14
2023-04-15T01:08:14.120Z,11.09
2023-04-15T01:10:42.944Z,11.07
2023-04-15T01:13:11.719Z,11.03
2023-04-15T01:15:41.799Z,10.94
2023-04-15T01:18:10.721Z,10.84
2023-04-15T01:20:40.087Z,10.79
2023-04-15T01:23:08.677Z,10.77
2023-04-15T01:25:37.443Z,10.73
2023-04-15T01:28:06.403Z,10.70
2023-04-15T01:30:36.044Z,10.68
2023-04-15T01:33:04.977Z,10.65
2023-04-15T01:35:33.831Z,10.58
2023-04-15T01:38:11.724Z,10.57
2023-04-15T01:40:41.304Z,10.50
2023-04-15T01:43:09.988Z,10.42
2023-04-15T01:45:38.677Z,10.40
2023-04-15T01:48:07.419Z,10.40
2023-04-15T01:50:40.290Z,10.44
2023-04-15T01:53:09.048Z,10.44
2023-04-15T01:55:37.955Z,10.43
2023-04-15T01:58:06.562Z,10.37
2023-04-15T02:00:35.693Z,10.37
2023-04-15T02:03:04.533Z,10.36
2023-04-15T02:05:34.231Z,10.35
2023-04-15T02:08:04.237Z,10.40
2023-04-15T02:10:33.014Z,10.42
2023-04-15T02:13:02.132Z,10.35
2023-04-15T02:15:31.002Z,10.36
2023-04-15T02:18:01.179Z,10.37
2023-04-15T02:20:31.127Z,10.37
2023-04-15T02:23:00.161Z,10.38
2023-04-15T02:25:29.020Z,10.41
2023-04-15T02:27:58.729Z,10.43
2023-04-15T02:30:27.527Z,10.39
2023-04-15T02:32:58.472Z,10.37
2023-04-15T02:35:27.768Z,10.37
2023-04-15T02:37:56.751Z,10.36
2023-04-15T02:40:25.748Z,10.35
2023-04-15T02:42:54.346Z,10.36
2023-04-15T02:45:26.136Z,10.38
2023-04-15T02:47:55.291Z,10.41
2023-04-15T02:50:24.510Z,10.43
2023-04-15T02:52:53.075Z,10.41
2023-04-15T02:55:21.838Z,10.46
2023-04-15T02:57:50.953Z,10.45
2023-04-15T03:00:19.724Z,10.50
2023-04-15T03:02:52.599Z,10.49
2023-04-15T03:05:21.501Z,10.47
2023-04-15T03:07:53.155Z,10.48
2023-04-15T03:10:22.769Z,10.50
2023-04-15T03:12:51.392Z,10.50
2023-04-15T03:15:21.524Z,10.51
2023-04-15T03:17:52.747Z,10.51
2023-04-15T03:20:21.381Z,10.49
2023-04-15T03:22:50.306Z,10.50
2023-04-15T03:25:20.642Z,10.52
2023-04-15T03:27:49.308Z,10.48
2023-04-15T03:30:18.804Z,10.55
2023-04-15T03:32:47.948Z,10.60
2023-04-15T03:35:16.908Z,10.65
2023-04-15T03:37:45.524Z,10.70
2023-04-15T03:40:14.211Z,10.73
2023-04-15T03:42:42.944Z,10.76
2023-04-15T03:45:12.149Z,10.75
2023-04-15T03:47:40.862Z,10.78
2023-04-15T03:50:09.828Z,10.72
2023-04-15T03:52:38.616Z,10.77
2023-04-15T03:55:08.754Z,10.78
2023-04-15T03:57:39.405Z,10.76
2023-04-15T04:00:10.939Z,10.75
2023-04-15T04:02:42.565Z,10.72
2023-04-15T04:05:11.844Z,10.70
2023-04-15T04:07:40.743Z,10.69
2023-04-15T04:10:09.927Z,10.67
2023-04-15T04:12:38.762Z,10.68
2023-04-15T04:15:08.359Z,10.70
2023-04-15T04:17:37.059Z,10.72
2023-04-15T04:20:06.966Z,10.68
2023-04-15T04:22:40.759Z,10.73
2023-04-15T04:25:13.353Z,10.76
2023-04-15T04:27:42.048Z,10.79
2023-04-15T04:30:11.190Z,10.83
2023-04-15T04:32:40.030Z,10.89
2023-04-15T04:35:09.331Z,10.95
2023-04-15T04:37:37.897Z,10.98
2023-04-15T04:40:08.358Z,10.97
2023-04-15T04:42:38.677Z,10.97
2023-04-15T04:45:09.164Z,10.98
2023-04-15T04:47:37.870Z,10.97
2023-04-15T04:50:08.279Z,10.98
2023-04-15T04:52:37.472Z,11.00
2023-04-15T04:55:06.852Z,11.02
2023-04-15T04:57:39.764Z,11.05
2023-04-15T05:00:09.430Z,11.12
2023-04-15T05:02:38.196Z,11.17
2023-04-15T05:05:08.227Z,11.12
2023-04-15T05:07:37.019Z,11.18
2023-04-15T05:10:06.821Z,11.17
2023-04-15T05:12:37.757Z,11.24
2023-04-15T05:15:07.904Z,11.26
2023-04-15T05:17:36.779Z,11.26
2023-04-15T05:20:06.631Z,11.31
2023-04-15T05:22:35.234Z,11.37
2023-04-15T05:25:04.208Z,11.44
2023-04-15T05:27:32.832Z,11.46
2023-04-15T05:30:01.497Z,11.48
2023-04-15T05:32:30.322Z,11.52
2023-04-15T05:34:59.080Z,11.55
2023-04-15T05:37:27.671Z,11.50
2023-04-15T05:39:56.999Z,11.51
2023-04-15T05:42:25.831Z,11.48
2023-04-15T05:44:54.373Z,11.58
2023-04-15T05:47:22.987Z,11.64
2023-04-15T05:49:51.714Z,11.70
2023-04-15T05:52:20.827Z,11.72
2023-04-15T05:54:49.432Z,11.76
2023-04-15T05:57:18.098Z,11.75
2023-04-15T05:59:46.933Z,11.74
2023-04-15T06:02:15.788Z,11.73
2023-04-15T06:04:45.778Z,11.64
2023-04-15T06:07:14.438Z,11.73
2023-04-15T06:09:42.982Z,11.79
2023-04-15T06:12:13.352Z,11.92
2023-04-15T06:14:42.079Z,12.02
2023-04-15T06:17:10.825Z,12.06
2023-04-15T06:19:39.711Z,12.13
2023-04-15T06:22:08.530Z,12.17
2023-04-15T06:24:37.390Z,12.19
2023-04-15T06:27:05.967Z,12.20
2023-04-15T06:29:34.752Z,12.08
2023-04-15T06:32:03.365Z,12.21
2023-04-15T06:34:32.085Z,12.29
2023-04-15T06:37:01.644Z,12.36
2023-04-15T06:39:30.252Z,12.48
2023-04-15T06:41:59.303Z,12.51
2023-04-15T06:44:27.985Z,12.52
2023-04-15T06:46:57.083Z,12.55
2023-04-15T06:49:25.880Z,12.61
2023-04-15T06:51:54.558Z,12.61
2023-04-15T06:54:23.217Z,12.66
2023-04-15T06:56:52.897Z,12.68
2023-04-15T06:59:21.509Z,12.74
2023-04-15T07:01:50.276Z,12.81
2023-04-15T07:04:18.897Z,12.86
2023-04-15T07:06:47.540Z,12.90
2023-04-15T07:09:16.280Z,12.90
2023-04-15T07:11:44.928Z,12.92
2023-04-15T07:14:13.530Z,12.96
2023-04-15T07:16:42.169Z,13.08
2023-04-15T07:19:10.992Z,13.24
2023-04-15T07:21:41.797Z,13.39
2023-04-15T07:24:10.819Z,13.53
2023-04-15T07:26:39.997Z,13.73
2023-04-15T07:29:08.631Z,13.83
2023-04-15T07:31:37.363Z,14.00
2023-04-15T07:34:07.641Z,14.05
2023-04-15T07:36:37.156Z,14.04
2023-04-15T07:39:06.374Z,14.02
2023-04-15T07:41:34.984Z,13.96
2023-04-15T07:44:03.579Z,13.91
2023-04-15T07:46:32.201Z,13.83
2023-04-15T07:49:01.056Z,13.80
2023-04-15T07:51:30.901Z,13.76
2023-04-15T07:53:59.592Z,13.69
2023-04-15T07:56:28.267Z,13.64
2023-04-15T07:58:56.872Z,13.56
2023-04-15T08:01:25.563Z,13.52
2023-04-15T08:03:55.303Z,13.45
2023-04-15T08:06:24.097Z,13.44
2023-04-15T08:08:53.084Z,13.41
2023-04-15T08:11:22.089Z,13.39
2023-04-15T08:13:50.773Z,13.34
2023-04-15T08:16:23.038Z,13.34
2023-04-15T08:18:54.320Z,13.36
2023-04-15T08:21:24.090Z,13.42
2023-04-15T08:23:53.863Z,13.42
2023-04-15T08:26:23.142Z,13.47
2023-04-15T08:28:51.945Z,13.50
2023-04-15T08:31:21.241Z,13.49
2023-04-15T08:33:52.294Z,13.45
2023-04-15T08:36:20.853Z,13.46
2023-04-15T08:38:49.543Z,13.46
2023-04-15T08:41:27.720Z,13.45
2023-04-15T08:44:04.317Z,13.46
2023-04-15T08:46:36.721Z,13.48
2023-04-15T08:49:06.040Z,13.49
2023-04-15T08:51:34.970Z,13.48
2023-04-15T08:54:04.752Z,13.46
2023-04-15T08:56:33.565Z,13.45
2023-04-15T08:59:02.678Z,13.46
2023-04-15T09:01:33.394Z,13.41
2023-04-15T09:04:03.536Z,13.34
2023-04-15T09:06:35.180Z,13.32
2023-04-15T09:09:04.395Z,13.21
2023-04-15T09:11:33.192Z,13.18
2023-04-15T09:14:02.117Z,13.12
2023-04-15T09:16:31.043Z,13.05
2023-04-15T09:18:59.765Z,13.01
2023-04-15T09:21:29.839Z,13.05
2023-04-15T09:24:01.431Z,13.04
2023-04-15T09:26:35.639Z,13.00
2023-04-15T09:29:09.654Z,13.05
2023-04-15T09:31:38.366Z,13.05
2023-04-15T09:34:07.769Z,13.05
2023-04-15T09:36:50.959Z,12.97
2023-04-15T09:39:20.416Z,13.04
2023-04-15T09:42:07.189Z,13.04
2023-04-15T09:44:36.040Z,13.12
2023-04-15T09:47:04.633Z,13.16
2023-04-15T09:49:33.378Z,13.27
2023-04-15T09:52:06.315Z,13.27
2023-04-15T09:54:39.426Z,13.28
2023-04-15T09:57:10.988Z,13.29
2023-04-15T09:59:39.956Z,13.37
2023-04-15T10:02:08.683Z,13.53
2023-04-15T10:04:41.855Z,13.61
2023-04-15T10:07:12.370Z,13.77
2023-04-15T10:09:41.251Z,13.88
2023-04-15T10:12:10.662Z,13.94
2023-04-15T10:14:41.204Z,13.92
2023-04-15T10:17:12.813Z,13.86
2023-04-15T10:19:42.017Z,13.81
2023-04-15T10:22:11.101Z,13.77
2023-04-15T10:24:40.931Z,13.73
2023-04-15T10:27:10.300Z,13.70
2023-04-15T10:29:39.272Z,13.67
2023-04-15T10:32:08.139Z,13.59
2023-04-15T10:34:38.386Z,13.58
2023-04-15T10:37:11.914Z,13.56
2023-04-15T10:39:45.094Z,13.52
2023-04-15T10:42:19.460Z,13.47
2023-04-15T10:44:56.770Z,13.44
2023-04-15T10:47:25.819Z,13.45
2023-04-15T10:50:02.621Z,13.44
2023-04-15T10:52:31.364Z,13.46
2023-04-15T10:55:21.134Z,13.49
2023-04-15T10:57:56.357Z,13.51
2023-04-15T11:00:33.104Z,13.49
2023-04-15T11:03:09.909Z,13.41
2023-04-15T11:05:54.988Z,13.39
2023-04-15T11:08:55.124Z,13.34
2023-04-15T11:11:23.866Z,13.38
2023-04-15T11:13:55.588Z,13.39
2023-04-15T11:16:24.677Z,13.49
2023-04-15T11:18:56.104Z,13.56
2023-04-15T11:21:28.464Z,13.65
2023-04-15T11:23:57.354Z,13.72
2023-04-15T11:26:27.511Z,13.79
2023-04-15T11:28:56.301Z,13.88
2023-04-15T11:31:28.821Z,13.90
2023-04-15T11:34:02.584Z,14.01
2023-04-15T11:36:34.771Z,14.09
2023-04-15T11:39:04.289Z,14.16
2023-04-15T11:41:32.955Z,14.33
2023-04-15T11:44:01.688Z,14.66
2023-04-15T11:46:34.435Z,15.03
2023-04-15T11:49:03.131Z,15.30
2023-04-15T11:51:36.201Z,15.51
2023-04-15T11:54:05.082Z,15.66
2023-04-15T11:56:34.073Z,15.77
2023-04-15T11:59:03.328Z,15.91
2023-04-15T12:01:39.607Z,16.18
2023-04-15T12:04:23.322Z,16.52
2023-04-15T12:06:54.197Z,16.78
2023-04-15T12:09:22.854Z,16.97
2023-04-15T12:11:54.017Z,17.03
2023-04-15T12:14:26.899Z,17.03
2023-04-15T12:17:00.642Z,17.06
2023-04-15T12:19:32.738Z,17.07
2023-04-15T12:22:04.717Z,17.06
2023-04-15T12:24:35.088Z,17.03
2023-04-15T12:27:09.485Z,17.00
2023-04-15T12:29:40.610Z,17.01
2023-04-15T12:32:14.112Z,17.10
2023-04-15T12:34:51.621Z,17.26
2023-04-15T12:37:20.775Z,17.38
2023-04-15T12:39:51.216Z,17.44
2023-04-15T12:42:20.579Z,17.58
2023-04-15T12:44:49.002Z,17.64
2023-04-15T12:47:17.592Z,17.64
2023-04-15T12:49:46.276Z,17.46
2023-04-15T12:52:15.300Z,17.30
2023-04-15T12:54:43.890Z,17.04
2023-04-15T12:57:12.569Z,17.10
2023-04-15T12:59:41.271Z,17.22
2023-04-15T13:02:09.927Z,17.18
2023-04-15T13:04:38.614Z,17.03
2023-04-15T13:07:07.238Z,17.12
2023-04-15T13:09:35.785Z,17.26
2023-04-15T13:12:05.646Z,17.16
2023-04-15T13:14:34.319Z,17.36
2023-04-15T13:17:04.449Z,17.78
2023-04-15T13:19:33.183Z,18.27
2023-04-15T13:22:02.012Z,18.73
2023-04-15T13:24:30.558Z,19.02
2023-04-15T13:26:59.516Z,19.06
2023-04-15T13:29:28.088Z,18.92
2023-04-15T13:31:57.060Z,18.70
2023-04-15T13:34:25.632Z,18.41
2023-04-15T13:36:54.320Z,18.50
2023-04-15T13:39:23.473Z,18.76
2023-04-15T13:41:51.905Z,19.19
2023-04-15T13:44:22.083Z,19.69
2023-04-15T13:46:51.284Z,20.13
2023-04-15T13:49:20.015Z,20.45
2023-04-15T13:51:48.620Z,20.71
2023-04-15T13:54:17.314Z,20.55
2023-04-15T13:56:45.945Z,20.47
2023-04-15T13:59:14.622Z,20.53
2023-04-15T14:01:43.986Z,20.67
2023-04-15T14:04:12.790Z,20.73
2023-04-15T14:06:41.540Z,20.74
2023-04-15T14:09:10.708Z,20.49
2023-04-15T14:11:39.780Z,20.30
2023-04-15T14:14:08.207Z,20.25
2023-04-15T14:16:36.926Z,20.21
2023-04-15T14:19:06.040Z,20.20
2023-04-15T14:21:34.651Z,20.15
2023-04-15T14:24:03.309Z,20.00
2023-04-15T14:26:31.964Z,19.72
2023-04-15T14:29:00.884Z,19.49
2023-04-15T14:31:29.364Z,19.18
2023-04-15T14:33:57.886Z,18.85
2023-04-15T14:36:27.416Z,18.65
2023-04-15T14:38:56.066Z,18.49
2023-04-15T14:41:24.865Z,18.29
2023-04-15T14:43:53.619Z,18.13
2023-04-15T14:46:22.652Z,17.94
2023-04-15T14:48:51.329Z,17.79
2023-04-15T14:51:20.464Z,17.62
2023-04-15T14:53:49.220Z,17.48
2023-04-15T14:56:17.847Z,17.29
2023-04-15T14:58:46.547Z,17.20
2023-04-15T15:01:15.582Z,17.04
2023-04-15T15:03:44.476Z,16.96
2023-04-15T15:06:13.712Z,16.88
2023-04-15T15:08:42.316Z,16.77
2023-04-15T15:11:10.903Z,16.66
2023-04-15T15:13:39.575Z,16.56
2023-04-15T15:16:08.253Z,16.45
2023-04-15T15:18:36.923Z,16.41
2023-04-15T15:21:05.751Z,16.40
2023-04-15T15:23:34.468Z,16.40
2023-04-15T15:26:03.113Z,16.38
2023-04-15T15:28:31.874Z,16.40
2023-04-15T15:31:00.816Z,16.35
2023-04-15T15:33:30.290Z,16.29
2023-04-15T15:35:59.457Z,16.20
2023-04-15T15:38:28.718Z,16.11
2023-04-15T15:40:57.153Z,16.05
2023-04-15T15:43:25.768Z,15.91
2023-04-15T15:45:55.814Z,15.89
2023-04-15T15:48:24.776Z,15.75
2023-04-15T15:50:53.936Z,15.73
2023-04-15T15:53:24.609Z,15.70
2023-04-15T15:55:54.024Z,15.63
2023-04-15T15:58:22.822Z,15.57
2023-04-15T16:00:51.460Z,15.59
2023-04-15T16:03:20.280Z,15.58
2023-04-15T16:05:49.232Z,15.53
2023-04-15T16:08:17.860Z,15.53
2023-04-15T16:10:46.644Z,15.50
2023-04-15T16:13:15.669Z,15.47
2023-04-15T16:15:44.328Z,15.44
2023-04-15T16:18:12.871Z,15.43
2023-04-15T16:20:42.359Z,15.40
2023-04-15T16:23:16.611Z,15.38
2023-04-15T16:25:45.763Z,15.33
2023-04-15T16:28:25.526Z,15.25
2023-04-15T16:30:56.800Z,15.15
2023-04-15T16:33:25.600Z,15.07
2023-04-15T16:35:54.200Z,14.97
2023-04-15T16:38:22.921Z,14.87
2023-04-15T16:40:51.912Z,14.80
2023-04-15T16:43:20.554Z,14.70
2023-04-15T16:45:51.569Z,14.59
2023-04-15T16:48:21.203Z,14.54
2023-04-15T16:50:49.907Z,14.47
2023-04-15T16:53:18.615Z,14.41
2023-04-15T16:55:47.306Z,14.29
2023-04-15T16:58:16.128Z,14.21
2023-04-15T17:00:44.940Z,14.14
2023-04-15T17:03:13.765Z,14.06
2023-04-15T17:05:42.591Z,14.01
2023-04-15T17:08:11.289Z,13.93
2023-04-15T17:10:40.001Z,13.87
2023-04-15T17:13:08.760Z,13.79
2023-04-15T17:15:37.488Z,13.76
2023-04-15T17:18:06.301Z,13.70
2023-04-15T17:20:35.222Z,13.64
2023-04-15T17:23:04.580Z,13.59
2023-04-15T17:25:33.372Z,13.54
2023-04-15T17:28:02.473Z,13.51
2023-04-15T17:30:32.507Z,13.46
2023-04-15T17:33:01.853Z,13.44
2023-04-15T17:35:31.833Z,13.39
2023-04-15T17:38:00.637Z,13.40
2023-04-15T17:40:29.177Z,13.42
2023-04-15T17:42:59.305Z,13.43
2023-04-15T17:45:27.973Z,13.44
2023-04-15T17:48:02.380Z,13.44
2023-04-15T17:50:34.356Z,13.45
2023-04-15T17:53:03.161Z,13.42
2023-04-15T17:55:36.000Z,13.39
2023-04-15T17:58:04.659Z,13.41
2023-04-15T18:00:33.571Z,13.37
2023-04-15T18:03:02.648Z,13.32
2023-04-15T18:05:32.012Z,13.27
2023-04-15T18:08:00.652Z,13.21
2023-04-15T18:10:29.371Z,13.16
2023-04-15T18:12:58.038Z,13.12
2023-04-15T18:15:27.356Z,13.07
2023-04-15T18:17:56.609Z,13.04
2023-04-15T18:20:29.341Z,13.02
2023-04-15T18:22:58.444Z,13.01
2023-04-15T18:25:27.025Z,12.98
2023-04-15T18:27:56.399Z,12.92
2023-04-15T18:30:25.587Z,12.90
2023-04-15T18:32:54.450Z,12.89
2023-04-15T18:35:24.551Z,12.84
2023-04-15T18:37:53.513Z,12.79
2023-04-15T18:40:22.202Z,12.76
2023-04-15T18:42:52.995Z,12.65
2023-04-15T18:45:22.162Z,12.59
2023-04-15T18:47:51.653Z,12.52
2023-04-15T18:50:21.061Z,12.51
2023-04-15T18:52:49.630Z,12.50
2023-04-15T18:55:19.282Z,12.49
2023-04-15T18:57:48.397Z,12.37
2023-04-15T19:00:17.827Z,12.16
2023-04-15T19:02:46.533Z,12.12
2023-04-15T19:05:15.615Z,12.03
2023-04-15T19:07:44.900Z,11.94
2023-04-15T19:10:13.804Z,11.91
2023-04-15T19:12:44.596Z,11.86
2023-04-15T19:15:13.205Z,11.86
2023-04-15T19:17:41.906Z,11.84
2023-04-15T19:20:10.852Z,11.77
2023-04-15T19:22:39.963Z,11.73
2023-04-15T19:25:09.457Z,11.60
2023-04-15T19:27:41.300Z,11.57
2023-04-15T19:30:10.666Z,11.50
2023-04-15T19:32:39.576Z,11.42
2023-04-15T19:35:10.798Z,11.30
2023-04-15T19:37:40.675Z,11.09
2023-04-15T19:40:09.916Z,11.09
2023-04-15T19:42:39.033Z,11.12
2023-04-15T19:45:08.707Z,11.14
2023-04-15T19:47:37.317Z,11.06
2023-04-15T19:50:08.051Z,11.12
2023-04-15T19:52:36.730Z,11.18
2023-04-15T19:55:05.893Z,11.19
2023-04-15T19:57:35.000Z,11.15
2023-04-15T20:00:06.204Z,11.17
2023-04-15T20:02:34.785Z,11.18
2023-04-15T20:05:03.950Z,11.21
2023-04-15T20:07:32.825Z,11.27
2023-04-15T20:10:01.751Z,11.26
2023-04-15T20:12:50.674Z,11.26
2023-04-15T20:15:19.667Z,11.28
2023-04-15T20:17:48.520Z,11.25
2023-04-15T20:20:17.185Z,11.24
2023-04-15T20:22:46.054Z,11.16
2023-04-15T20:25:14.655Z,11.14
2023-04-15T20:27:43.258Z,10.97
2023-04-15T20:30:12.361Z,10.99
2023-04-15T20:32:41.027Z,10.96
2023-04-15T20:35:09.861Z,10.98
2023-04-15T20:37:38.593Z,11.01
2023-04-15T20:40:08.109Z,11.01
2023-04-15T20:42:36.664Z,11.05
2023-04-15T20:45:07.271Z,11.13
2023-04-15T20:47:36.028Z,11.18
2023-04-15T20:50:05.009Z,11.20
2023-04-15T20:52:33.730Z,11.25
2023-04-15T20:55:02.391Z,11.21
2023-04-15T20:57:31.085Z,11.08
2023-04-15T20:59:59.604Z,10.93
2023-04-15T21:02:28.452Z,10.89
2023-04-15T21:04:59.414Z,10.88
2023-04-15T21:07:28.006Z,10.79
2023-04-15T21:09:56.656Z,10.64
2023-04-15T21:12:25.328Z,10.66
2023-04-15T21:14:54.041Z,10.66
2023-04-15T21:17:22.915Z,10.64
2023-04-15T21:19:51.745Z,10.57
2023-04-15T21:22:20.937Z,10.56
2023-04-15T21:24:49.595Z,10.52
2023-04-15T21:27:18.246Z,10.57
2023-04-15T21:29:46.889Z,10.60
2023-04-15T21:32:16.127Z,10.53
2023-04-15T21:34:44.979Z,10.40
2023-04-15T21:37:13.561Z,10.16
2023-04-15T21:39:42.106Z,9.99
2023-04-15T21:42:10.806Z,9.84
2023-04-15T21:44:39.738Z,9.87
2023-04-15T21:47:08.456Z,9.84
2023-04-15T21:49:37.161Z,9.76
2023-04-15T21:52:06.160Z,9.76
2023-04-15T21:54:37.253Z,9.73
2023-04-15T21:57:05.874Z,9.68
2023-04-15T21:59:34.515Z,9.75
2023-04-15T22:02:03.249Z,9.74
2023-04-15T22:04:31.964Z,9.71
2023-04-15T22:07:02.461Z,9.77
2023-04-15T22:09:31.309Z,9.83
2023-04-15T22:12:00.080Z,9.87
2023-04-15T22:14:30.706Z,9.91
2023-04-15T22:16:59.597Z,9.94
2023-04-15T22:19:28.383Z,9.91
2023-04-15T22:21:56.973Z,9.91
2023-04-15T22:24:36.987Z,9.85
2023-04-15T22:27:08.941Z,9.81
2023-04-15T22:29:37.489Z,9.84
2023-04-15T22:32:07.286Z,9.81
2023-04-15T22:34:36.269Z,9.85
2023-04-15T22:37:05.032Z,9.82
2023-04-15T22:39:33.739Z,9.77
2023-04-15T22:42:02.746Z,9.80
2023-04-15T22:44:31.596Z,9.82
2023-04-15T22:47:00.443Z,9.83
2023-04-15T22:49:29.197Z,9.82
2023-04-15T22:51:57.802Z,9.80
2023-04-15T22:54:26.904Z,9.77
2023-04-15T22:56:56.692Z,9.75
2023-04-15T22:59:26.198Z,9.75
2023-04-15T23:01:55.140Z,9.80
2023-04-15T23:04:26.405Z,9.79
2023-04-15T23:06:57.064Z,9.83
2023-04-15T23:09:25.742Z,9.83
2023-04-15T23:11:54.925Z,9.75
2023-04-15T23:14:23.608Z,9.76
2023-04-15T23:16:52.240Z,9.77
2023-04-15T23:19:21.008Z,9.68
2023-04-15T23:21:50.222Z,9.66
2023-04-15T23:24:18.801Z,9.60
2023-04-15T23:26:47.674Z,9.52
2023-04-15T23:29:16.469Z,9.43
2023-04-15T23:31:45.166Z,9.41
2023-04-15T23:34:13.785Z,9.36
2023-04-15T23:36:42.393Z,9.29
2023-04-15T23:39:11.145Z,9.29
2023-04-15T23:41:39.920Z,9.31
2023-04-15T23:44:09.938Z,9.29
2023-04-15T23:46:38.822Z,9.25
2023-04-15T23:49:07.637Z,9.31
2023-04-15T23:51:36.473Z,9.30
2023-04-15T23:54:05.099Z,9.27
2023-04-15T23:56:33.690Z,9.28
2023-04-15T23:59:02.307Z,9.31
